sensor_id;sensor_type;location;lat;lon;timestamp;P1;durP1;ratioP1;P2;durP2;ratioP2
3991;SDS011;2010;48.194;16.394;2023-01-15T00:00:31;8.43;;;6.30;;
3991;SDS011;2010;48.194;16.394;2023-01-15T00:02:59;8.40;;;6.57;;
3991;SDS011;2010;48.194;16.394;2023-01-15T00:05:29;8.80;;;7.13;;
3991;SDS011;2010;48.194;16.394;2023-01-15T00:08:04;7.37;;;5.90;;
3991;SDS011;2010;48.194;16.394;2023-01-15T00:10:36;14.53;;;6.30;;
3991;SDS011;2010;48.194;16.394;2023-01-15T00:13:09;6.13;;;5.53;;
3991;SDS011;2010;48.194;16.394;2023-01-15T00:15:43;7.50;;;5.83;;
3991;SDS011;2010;48.194;16.394;2023-01-15T00:18:18;6.80;;;5.43;;
3991;SDS011;2010;48.194;16.394;2023-01-15T00:20:57;7.10;;;5.03;;
3991;SDS011;2010;48.194;16.394;2023-01-15T00:23:29;10.90;;;6.50;;
3991;SDS011;2010;48.194;16.394;2023-01-15T00:26:26;7.80;;;4.97;;
3991;SDS011;2010;48.194;16.394;2023-01-15T00:29:21;6.70;;;6.00;;
3991;SDS011;2010;48.194;16.394;2023-01-15T00:31:54;7.53;;;6.63;;
3991;SDS011;2010;48.194;16.394;2023-01-15T00:34:30;9.77;;;5.83;;
3991;SDS011;2010;48.194;16.394;2023-01-15T00:37:00;6.00;;;5.50;;
3991;SDS011;2010;48.194;16.394;2023-01-15T00:39:32;7.50;;;6.13;;
3991;SDS011;2010;48.194;16.394;2023-01-15T00:42:04;6.23;;;5.53;;
3991;SDS011;2010;48.194;16.394;2023-01-15T00:44:41;9.03;;;7.13;;
3991;SDS011;2010;48.194;16.394;2023-01-15T00:47:13;6.90;;;6.20;;
3991;SDS011;2010;48.194;16.394;2023-01-15T00:49:41;6.93;;;5.93;;
3991;SDS011;2010;48.194;16.394;2023-01-15T00:52:17;8.53;;;6.87;;
3991;SDS011;2010;48.194;16.394;2023-01-15T00:54:46;6.93;;;6.23;;
3991;SDS011;2010;48.194;16.394;2023-01-15T00:57:16;7.13;;;6.40;;
3991;SDS011;2010;48.194;16.394;2023-01-15T00:59:51;10.27;;;7.10;;
3991;SDS011;2010;48.194;16.394;2023-01-15T01:02:23;8.10;;;6.90;;
3991;SDS011;2010;48.194;16.394;2023-01-15T01:04:53;8.93;;;7.40;;
3991;SDS011;2010;48.194;16.394;2023-01-15T01:07:23;10.10;;;7.27;;
3991;SDS011;2010;48.194;16.394;2023-01-15T01:09:53;9.87;;;7.03;;
3991;SDS011;2010;48.194;16.394;2023-01-15T01:12:25;8.90;;;7.23;;
3991;SDS011;2010;48.194;16.394;2023-01-15T01:15:00;7.90;;;6.53;;
3991;SDS011;2010;48.194;16.394;2023-01-15T01:17:37;8.03;;;6.57;;
3991;SDS011;2010;48.194;16.394;2023-01-15T01:20:15;11.37;;;7.27;;
3991;SDS011;2010;48.194;16.394;2023-01-15T01:22:56;8.60;;;6.83;;
3991;SDS011;2010;48.194;16.394;2023-01-15T01:25:27;7.40;;;6.50;;
3991;SDS011;2010;48.194;16.394;2023-01-15T01:28:00;9.13;;;6.40;;
3991;SDS011;2010;48.194;16.394;2023-01-15T01:30:37;8.33;;;6.43;;
3991;SDS011;2010;48.194;16.394;2023-01-15T01:33:09;8.70;;;6.63;;
3991;SDS011;2010;48.194;16.394;2023-01-15T01:35:46;11.10;;;7.17;;
3991;SDS011;2010;48.194;16.394;2023-01-15T01:38:16;9.57;;;7.27;;
3991;SDS011;2010;48.194;16.394;2023-01-15T01:40:48;9.10;;;7.30;;
3991;SDS011;2010;48.194;16.394;2023-01-15T01:43:20;8.53;;;6.70;;
3991;SDS011;2010;48.194;16.394;2023-01-15T01:46:02;8.97;;;6.80;;
3991;SDS011;2010;48.194;16.394;2023-01-15T01:48:31;8.27;;;6.67;;
3991;SDS011;2010;48.194;16.394;2023-01-15T01:51:10;7.13;;;6.43;;
3991;SDS011;2010;48.194;16.394;2023-01-15T01:53:49;9.03;;;6.80;;
3991;SDS011;2010;48.194;16.394;2023-01-15T01:56:24;8.57;;;7.67;;
3991;SDS011;2010;48.194;16.394;2023-01-15T01:58:54;11.83;;;8.43;;
3991;SDS011;2010;48.194;16.394;2023-01-15T02:01:27;11.07;;;7.17;;
3991;SDS011;2010;48.194;16.394;2023-01-15T02:03:56;9.30;;;7.10;;
3991;SDS011;2010;48.194;16.394;2023-01-15T02:06:27;11.23;;;6.63;;
3991;SDS011;2010;48.194;16.394;2023-01-15T02:08:58;8.40;;;6.93;;
3991;SDS011;2010;48.194;16.394;2023-01-15T02:11:35;8.63;;;7.30;;
3991;SDS011;2010;48.194;16.394;2023-01-15T02:14:04;9.50;;;6.80;;
3991;SDS011;2010;48.194;16.394;2023-01-15T02:16:55;12.93;;;7.60;;
3991;SDS011;2010;48.194;16.394;2023-01-15T02:19:29;9.83;;;7.30;;
3991;SDS011;2010;48.194;16.394;2023-01-15T02:22:09;11.10;;;7.50;;
3991;SDS011;2010;48.194;16.394;2023-01-15T02:24:46;8.87;;;7.70;;
3991;SDS011;2010;48.194;16.394;2023-01-15T02:27:28;8.70;;;7.27;;
3991;SDS011;2010;48.194;16.394;2023-01-15T02:29:59;7.97;;;6.83;;
3991;SDS011;2010;48.194;16.394;2023-01-15T02:32:43;9.83;;;7.40;;
3991;SDS011;2010;48.194;16.394;2023-01-15T02:35:15;9.43;;;6.77;;
3991;SDS011;2010;48.194;16.394;2023-01-15T02:37:59;7.90;;;6.80;;
3991;SDS011;2010;48.194;16.394;2023-01-15T02:40:34;9.50;;;6.90;;
3991;SDS011;2010;48.194;16.394;2023-01-15T02:43:09;10.10;;;6.93;;
3991;SDS011;2010;48.194;16.394;2023-01-15T02:45:46;7.30;;;5.80;;
3991;SDS011;2010;48.194;16.394;2023-01-15T02:48:27;7.03;;;6.00;;
3991;SDS011;2010;48.194;16.394;2023-01-15T02:51:01;8.10;;;5.80;;
3991;SDS011;2010;48.194;16.394;2023-01-15T02:53:38;7.53;;;6.10;;
3991;SDS011;2010;48.194;16.394;2023-01-15T02:56:13;6.50;;;5.50;;
3991;SDS011;2010;48.194;16.394;2023-01-15T02:58:55;6.83;;;5.10;;
3991;SDS011;2010;48.194;16.394;2023-01-15T03:01:27;5.83;;;5.00;;
3991;SDS011;2010;48.194;16.394;2023-01-15T03:04:03;5.47;;;4.90;;
3991;SDS011;2010;48.194;16.394;2023-01-15T03:06:41;6.57;;;5.40;;
3991;SDS011;2010;48.194;16.394;2023-01-15T03:09:15;6.60;;;5.70;;
3991;SDS011;2010;48.194;16.394;2023-01-15T03:12:02;5.67;;;5.17;;
3991;SDS011;2010;48.194;16.394;2023-01-15T03:14:46;7.70;;;5.60;;
3991;SDS011;2010;48.194;16.394;2023-01-15T03:17:26;6.47;;;5.70;;
3991;SDS011;2010;48.194;16.394;2023-01-15T03:20:00;8.73;;;5.50;;
3991;SDS011;2010;48.194;16.394;2023-01-15T03:22:37;10.40;;;5.63;;
3991;SDS011;2010;48.194;16.394;2023-01-15T03:25:12;6.67;;;5.97;;
3991;SDS011;2010;48.194;16.394;2023-01-15T03:27:52;6.50;;;5.47;;
3991;SDS011;2010;48.194;16.394;2023-01-15T03:30:45;7.30;;;5.80;;
3991;SDS011;2010;48.194;16.394;2023-01-15T03:33:14;7.60;;;5.73;;
3991;SDS011;2010;48.194;16.394;2023-01-15T03:35:46;5.63;;;4.80;;
3991;SDS011;2010;48.194;16.394;2023-01-15T03:38:34;7.10;;;4.70;;
3991;SDS011;2010;48.194;16.394;2023-01-15T03:41:13;8.37;;;6.03;;
3991;SDS011;2010;48.194;16.394;2023-01-15T03:43:58;6.40;;;5.20;;
3991;SDS011;2010;48.194;16.394;2023-01-15T03:49:35;6.30;;;4.90;;
3991;SDS011;2010;48.194;16.394;2023-01-15T03:52:34;5.70;;;4.80;;
3991;SDS011;2010;48.194;16.394;2023-01-15T03:55:18;6.80;;;5.83;;
3991;SDS011;2010;48.194;16.394;2023-01-15T03:58:07;5.50;;;5.00;;
3991;SDS011;2010;48.194;16.394;2023-01-15T04:00:45;7.30;;;5.30;;
3991;SDS011;2010;48.194;16.394;2023-01-15T04:03:24;6.00;;;5.13;;
3991;SDS011;2010;48.194;16.394;2023-01-15T04:05:58;6.70;;;5.33;;
3991;SDS011;2010;48.194;16.394;2023-01-15T04:08:30;8.70;;;5.80;;
3991;SDS011;2010;48.194;16.394;2023-01-15T04:11:01;4.83;;;4.33;;
3991;SDS011;2010;48.194;16.394;2023-01-15T04:13:41;6.37;;;5.37;;
3991;SDS011;2010;48.194;16.394;2023-01-15T04:16:23;9.80;;;8.20;;
3991;SDS011;2010;48.194;16.394;2023-01-15T04:18:55;6.10;;;5.50;;
3991;SDS011;2010;48.194;16.394;2023-01-15T04:21:35;7.50;;;5.70;;
3991;SDS011;2010;48.194;16.394;2023-01-15T04:24:04;5.63;;;5.13;;
3991;SDS011;2010;48.194;16.394;2023-01-15T04:26:34;6.77;;;5.40;;
3991;SDS011;2010;48.194;16.394;2023-01-15T04:29:06;7.40;;;5.40;;
3991;SDS011;2010;48.194;16.394;2023-01-15T04:31:46;6.43;;;5.60;;
3991;SDS011;2010;48.194;16.394;2023-01-15T04:34:19;9.93;;;5.50;;
3991;SDS011;2010;48.194;16.394;2023-01-15T04:36:57;5.77;;;4.90;;
3991;SDS011;2010;48.194;16.394;2023-01-15T04:39:28;5.73;;;5.20;;
3991;SDS011;2010;48.194;16.394;2023-01-15T04:41:58;7.77;;;5.83;;
3991;SDS011;2010;48.194;16.394;2023-01-15T04:44:45;8.07;;;5.60;;
3991;SDS011;2010;48.194;16.394;2023-01-15T04:47:17;7.63;;;6.83;;
3991;SDS011;2010;48.194;16.394;2023-01-15T04:49:52;9.10;;;6.23;;
3991;SDS011;2010;48.194;16.394;2023-01-15T04:52:24;7.60;;;5.83;;
3991;SDS011;2010;48.194;16.394;2023-01-15T04:54:58;6.53;;;5.83;;
3991;SDS011;2010;48.194;16.394;2023-01-15T04:57:30;8.07;;;5.40;;
3991;SDS011;2010;48.194;16.394;2023-01-15T05:00:07;7.40;;;5.87;;
3991;SDS011;2010;48.194;16.394;2023-01-15T05:02:46;7.13;;;5.73;;
3991;SDS011;2010;48.194;16.394;2023-01-15T05:05:19;7.30;;;5.60;;
3991;SDS011;2010;48.194;16.394;2023-01-15T05:07:52;6.33;;;5.47;;
3991;SDS011;2010;48.194;16.394;2023-01-15T05:10:23;7.13;;;4.60;;
3991;SDS011;2010;48.194;16.394;2023-01-15T05:12:55;6.83;;;5.27;;
3991;SDS011;2010;48.194;16.394;2023-01-15T05:15:24;6.27;;;5.27;;
3991;SDS011;2010;48.194;16.394;2023-01-15T05:17:58;5.80;;;4.67;;
3991;SDS011;2010;48.194;16.394;2023-01-15T05:20:30;4.83;;;4.37;;
3991;SDS011;2010;48.194;16.394;2023-01-15T05:23:02;6.13;;;5.00;;
3991;SDS011;2010;48.194;16.394;2023-01-15T05:25:31;7.00;;;5.20;;
3991;SDS011;2010;48.194;16.394;2023-01-15T05:28:05;4.73;;;4.00;;
3991;SDS011;2010;48.194;16.394;2023-01-15T05:30:34;5.87;;;4.90;;
3991;SDS011;2010;48.194;16.394;2023-01-15T05:33:06;5.87;;;5.27;;
3991;SDS011;2010;48.194;16.394;2023-01-15T05:35:42;11.60;;;4.83;;
3991;SDS011;2010;48.194;16.394;2023-01-15T05:38:13;6.47;;;4.70;;
3991;SDS011;2010;48.194;16.394;2023-01-15T05:40:43;6.10;;;4.93;;
3991;SDS011;2010;48.194;16.394;2023-01-15T05:43:12;5.57;;;4.90;;
3991;SDS011;2010;48.194;16.394;2023-01-15T05:45:50;6.23;;;5.00;;
3991;SDS011;2010;48.194;16.394;2023-01-15T05:48:20;5.10;;;4.30;;
3991;SDS011;2010;48.194;16.394;2023-01-15T05:51:08;4.93;;;4.47;;
3991;SDS011;2010;48.194;16.394;2023-01-15T05:53:37;5.60;;;4.47;;
3991;SDS011;2010;48.194;16.394;2023-01-15T05:56:09;6.00;;;4.60;;
3991;SDS011;2010;48.194;16.394;2023-01-15T05:58:47;7.57;;;4.67;;
3991;SDS011;2010;48.194;16.394;2023-01-15T06:01:17;5.90;;;4.40;;
3991;SDS011;2010;48.194;16.394;2023-01-15T06:03:48;6.10;;;4.43;;
3991;SDS011;2010;48.194;16.394;2023-01-15T06:06:33;7.47;;;5.33;;
3991;SDS011;2010;48.194;16.394;2023-01-15T06:09:08;9.37;;;5.23;;
3991;SDS011;2010;48.194;16.394;2023-01-15T06:11:45;5.40;;;4.37;;
3991;SDS011;2010;48.194;16.394;2023-01-15T06:14:16;6.00;;;4.63;;
3991;SDS011;2010;48.194;16.394;2023-01-15T06:16:46;4.80;;;4.30;;
3991;SDS011;2010;48.194;16.394;2023-01-15T06:19:17;5.50;;;4.43;;
3991;SDS011;2010;48.194;16.394;2023-01-15T06:21:49;5.30;;;4.80;;
3991;SDS011;2010;48.194;16.394;2023-01-15T06:24:19;6.00;;;4.97;;
3991;SDS011;2010;48.194;16.394;2023-01-15T06:26:51;6.07;;;4.87;;
3991;SDS011;2010;48.194;16.394;2023-01-15T06:29:20;6.47;;;4.57;;
3991;SDS011;2010;48.194;16.394;2023-01-15T06:31:49;6.00;;;4.90;;
3991;SDS011;2010;48.194;16.394;2023-01-15T06:34:28;5.40;;;4.03;;
3991;SDS011;2010;48.194;16.394;2023-01-15T06:37:02;4.73;;;4.20;;
3991;SDS011;2010;48.194;16.394;2023-01-15T06:39:31;4.43;;;4.00;;
3991;SDS011;2010;48.194;16.394;2023-01-15T06:42:07;5.63;;;4.20;;
3991;SDS011;2010;48.194;16.394;2023-01-15T06:44:54;6.97;;;4.27;;
3991;SDS011;2010;48.194;16.394;2023-01-15T06:47:45;4.30;;;3.90;;
3991;SDS011;2010;48.194;16.394;2023-01-15T06:50:23;4.20;;;3.80;;
3991;SDS011;2010;48.194;16.394;2023-01-15T06:52:53;6.57;;;4.90;;
3991;SDS011;2010;48.194;16.394;2023-01-15T06:55:25;4.43;;;4.03;;
3991;SDS011;2010;48.194;16.394;2023-01-15T06:58:01;5.90;;;4.90;;
3991;SDS011;2010;48.194;16.394;2023-01-15T07:00:30;6.27;;;4.13;;
3991;SDS011;2010;48.194;16.394;2023-01-15T07:03:05;5.00;;;4.33;;
3991;SDS011;2010;48.194;16.394;2023-01-15T07:05:33;5.30;;;4.20;;
3991;SDS011;2010;48.194;16.394;2023-01-15T07:08:05;6.40;;;4.60;;
3991;SDS011;2010;48.194;16.394;2023-01-15T07:10:35;4.40;;;3.93;;
3991;SDS011;2010;48.194;16.394;2023-01-15T07:13:08;6.27;;;3.90;;
3991;SDS011;2010;48.194;16.394;2023-01-15T07:15:42;4.63;;;3.30;;
3991;SDS011;2010;48.194;16.394;2023-01-15T07:18:14;4.80;;;3.80;;
3991;SDS011;2010;48.194;16.394;2023-01-15T07:20:45;4.80;;;3.77;;
3991;SDS011;2010;48.194;16.394;2023-01-15T07:23:34;4.43;;;4.03;;
3991;SDS011;2010;48.194;16.394;2023-01-15T07:26:03;5.17;;;4.20;;
3991;SDS011;2010;48.194;16.394;2023-01-15T07:28:35;5.70;;;4.07;;
3991;SDS011;2010;48.194;16.394;2023-01-15T07:31:10;4.43;;;3.73;;
3991;SDS011;2010;48.194;16.394;2023-01-15T07:33:40;3.63;;;3.33;;
3991;SDS011;2010;48.194;16.394;2023-01-15T07:36:16;5.40;;;3.80;;
3991;SDS011;2010;48.194;16.394;2023-01-15T07:39:01;4.00;;;3.70;;
3991;SDS011;2010;48.194;16.394;2023-01-15T07:41:33;5.77;;;4.23;;
3991;SDS011;2010;48.194;16.394;2023-01-15T07:44:23;4.90;;;4.10;;
3991;SDS011;2010;48.194;16.394;2023-01-15T07:47:17;6.63;;;4.53;;
3991;SDS011;2010;48.194;16.394;2023-01-15T07:50:07;11.20;;;5.40;;
3991;SDS011;2010;48.194;16.394;2023-01-15T07:52:38;5.23;;;4.50;;
3991;SDS011;2010;48.194;16.394;2023-01-15T07:55:23;6.63;;;5.33;;
3991;SDS011;2010;48.194;16.394;2023-01-15T07:57:53;7.70;;;5.00;;
3991;SDS011;2010;48.194;16.394;2023-01-15T08:00:22;6.50;;;4.40;;
3991;SDS011;2010;48.194;16.394;2023-01-15T08:03:04;4.63;;;4.17;;
3991;SDS011;2010;48.194;16.394;2023-01-15T08:05:35;3.90;;;3.60;;
3991;SDS011;2010;48.194;16.394;2023-01-15T08:08:12;4.70;;;4.20;;
3991;SDS011;2010;48.194;16.394;2023-01-15T08:10:49;5.03;;;4.40;;
3991;SDS011;2010;48.194;16.394;2023-01-15T08:13:36;7.73;;;4.47;;
3991;SDS011;2010;48.194;16.394;2023-01-15T08:16:24;8.10;;;4.97;;
3991;SDS011;2010;48.194;16.394;2023-01-15T08:18:54;5.60;;;4.60;;
3991;SDS011;2010;48.194;16.394;2023-01-15T08:21:24;6.60;;;4.30;;
3991;SDS011;2010;48.194;16.394;2023-01-15T08:23:53;5.87;;;4.63;;
3991;SDS011;2010;48.194;16.394;2023-01-15T08:26:26;7.10;;;4.73;;
3991;SDS011;2010;48.194;16.394;2023-01-15T08:28:58;4.63;;;3.67;;
3991;SDS011;2010;48.194;16.394;2023-01-15T08:31:32;4.40;;;4.00;;
3991;SDS011;2010;48.194;16.394;2023-01-15T08:34:04;6.43;;;4.70;;
3991;SDS011;2010;48.194;16.394;2023-01-15T08:36:41;6.77;;;5.00;;
3991;SDS011;2010;48.194;16.394;2023-01-15T08:39:10;6.37;;;5.30;;
3991;SDS011;2010;48.194;16.394;2023-01-15T08:41:53;5.23;;;4.67;;
3991;SDS011;2010;48.194;16.394;2023-01-15T08:44:22;6.90;;;5.13;;
3991;SDS011;2010;48.194;16.394;2023-01-15T08:46:54;6.07;;;5.07;;
3991;SDS011;2010;48.194;16.394;2023-01-15T08:49:31;7.10;;;4.27;;
3991;SDS011;2010;48.194;16.394;2023-01-15T08:52:02;4.80;;;4.27;;
3991;SDS011;2010;48.194;16.394;2023-01-15T08:54:34;5.67;;;4.47;;
3991;SDS011;2010;48.194;16.394;2023-01-15T08:57:13;13.03;;;5.20;;
3991;SDS011;2010;48.194;16.394;2023-01-15T08:59:52;4.53;;;4.13;;
3991;SDS011;2010;48.194;16.394;2023-01-15T09:02:24;5.13;;;4.73;;
3991;SDS011;2010;48.194;16.394;2023-01-15T09:05:04;6.13;;;4.93;;
3991;SDS011;2010;48.194;16.394;2023-01-15T09:07:35;5.30;;;4.40;;
3991;SDS011;2010;48.194;16.394;2023-01-15T09:10:07;4.33;;;3.93;;
3991;SDS011;2010;48.194;16.394;2023-01-15T09:12:37;7.20;;;4.63;;
3991;SDS011;2010;48.194;16.394;2023-01-15T09:15:09;4.90;;;4.50;;
3991;SDS011;2010;48.194;16.394;2023-01-15T09:17:38;5.80;;;4.87;;
3991;SDS011;2010;48.194;16.394;2023-01-15T09:20:22;4.93;;;3.90;;
3991;SDS011;2010;48.194;16.394;2023-01-15T09:22:53;6.43;;;4.50;;
3991;SDS011;2010;48.194;16.394;2023-01-15T09:25:22;5.57;;;4.37;;
3991;SDS011;2010;48.194;16.394;2023-01-15T09:28:02;4.80;;;4.30;;
3991;SDS011;2010;48.194;16.394;2023-01-15T09:30:31;4.27;;;3.87;;
3991;SDS011;2010;48.194;16.394;2023-01-15T09:33:08;5.43;;;4.83;;
3991;SDS011;2010;48.194;16.394;2023-01-15T09:35:39;4.90;;;4.27;;
3991;SDS011;2010;48.194;16.394;2023-01-15T09:38:17;5.73;;;4.50;;
3991;SDS011;2010;48.194;16.394;2023-01-15T09:40:52;5.40;;;4.87;;
3991;SDS011;2010;48.194;16.394;2023-01-15T09:43:42;4.10;;;3.70;;
3991;SDS011;2010;48.194;16.394;2023-01-15T09:46:19;4.60;;;3.57;;
3991;SDS011;2010;48.194;16.394;2023-01-15T09:48:50;4.80;;;3.80;;
3991;SDS011;2010;48.194;16.394;2023-01-15T09:51:33;5.90;;;4.00;;
3991;SDS011;2010;48.194;16.394;2023-01-15T09:56:53;4.30;;;3.90;;
3991;SDS011;2010;48.194;16.394;2023-01-15T09:59:28;8.27;;;4.37;;
3991;SDS011;2010;48.194;16.394;2023-01-15T10:02:03;5.10;;;4.40;;
3991;SDS011;2010;48.194;16.394;2023-01-15T10:04:44;5.43;;;4.00;;
3991;SDS011;2010;48.194;16.394;2023-01-15T10:07:26;3.77;;;3.37;;
3991;SDS011;2010;48.194;16.394;2023-01-15T10:10:05;4.63;;;4.20;;
3991;SDS011;2010;48.194;16.394;2023-01-15T10:12:44;4.63;;;4.13;;
3991;SDS011;2010;48.194;16.394;2023-01-15T10:18:12;4.87;;;4.20;;
3991;SDS011;2010;48.194;16.394;2023-01-15T10:20:52;6.87;;;4.47;;
3991;SDS011;2010;48.194;16.394;2023-01-15T10:23:35;4.13;;;3.80;;
3991;SDS011;2010;48.194;16.394;2023-01-15T10:26:13;7.23;;;5.27;;
3991;SDS011;2010;48.194;16.394;2023-01-15T10:28:57;4.50;;;3.90;;
3991;SDS011;2010;48.194;16.394;2023-01-15T10:31:48;7.17;;;4.53;;
3991;SDS011;2010;48.194;16.394;2023-01-15T10:37:26;7.00;;;4.50;;
3991;SDS011;2010;48.194;16.394;2023-01-15T10:40:10;5.53;;;4.40;;
3991;SDS011;2010;48.194;16.394;2023-01-15T10:42:49;5.80;;;5.20;;
3991;SDS011;2010;48.194;16.394;2023-01-15T10:45:28;5.80;;;5.00;;
3991;SDS011;2010;48.194;16.394;2023-01-15T10:48:03;5.10;;;4.60;;
3991;SDS011;2010;48.194;16.394;2023-01-15T10:50:36;4.80;;;4.37;;
3991;SDS011;2010;48.194;16.394;2023-01-15T10:53:10;4.97;;;4.47;;
3991;SDS011;2010;48.194;16.394;2023-01-15T10:55:45;6.33;;;4.63;;
3991;SDS011;2010;48.194;16.394;2023-01-15T10:58:21;8.30;;;4.20;;
3991;SDS011;2010;48.194;16.394;2023-01-15T11:00:57;7.63;;;3.80;;
3991;SDS011;2010;48.194;16.394;2023-01-15T11:03:33;4.80;;;4.27;;
3991;SDS011;2010;48.194;16.394;2023-01-15T11:06:06;5.47;;;4.33;;
3991;SDS011;2010;48.194;16.394;2023-01-15T11:08:44;4.90;;;4.00;;
3991;SDS011;2010;48.194;16.394;2023-01-15T11:11:39;4.77;;;4.37;;
3991;SDS011;2010;48.194;16.394;2023-01-15T11:14:31;4.40;;;4.07;;
3991;SDS011;2010;48.194;16.394;2023-01-15T11:17:22;7.07;;;4.43;;
3991;SDS011;2010;48.194;16.394;2023-01-15T11:20:21;5.17;;;4.57;;
3991;SDS011;2010;48.194;16.394;2023-01-15T11:22:55;6.80;;;4.23;;
3991;SDS011;2010;48.194;16.394;2023-01-15T11:25:31;4.73;;;3.93;;
3991;SDS011;2010;48.194;16.394;2023-01-15T11:28:05;9.47;;;4.80;;
3991;SDS011;2010;48.194;16.394;2023-01-15T11:30:36;5.00;;;4.50;;
3991;SDS011;2010;48.194;16.394;2023-01-15T11:33:19;5.00;;;4.37;;
3991;SDS011;2010;48.194;16.394;2023-01-15T11:35:57;9.30;;;4.83;;
3991;SDS011;2010;48.194;16.394;2023-01-15T11:38:29;6.80;;;4.27;;
3991;SDS011;2010;48.194;16.394;2023-01-15T11:41:01;6.67;;;4.60;;
3991;SDS011;2010;48.194;16.394;2023-01-15T11:43:33;8.83;;;5.10;;
3991;SDS011;2010;48.194;16.394;2023-01-15T11:46:24;4.57;;;4.17;;
3991;SDS011;2010;48.194;16.394;2023-01-15T11:49:16;7.03;;;5.17;;
3991;SDS011;2010;48.194;16.394;2023-01-15T11:52:08;8.07;;;5.93;;
3991;SDS011;2010;48.194;16.394;2023-01-15T11:54:45;7.97;;;5.97;;
3991;SDS011;2010;48.194;16.394;2023-01-15T11:57:24;7.90;;;6.40;;
3991;SDS011;2010;48.194;16.394;2023-01-15T12:00:00;7.50;;;5.80;;
3991;SDS011;2010;48.194;16.394;2023-01-15T12:02:32;6.23;;;5.00;;
3991;SDS011;2010;48.194;16.394;2023-01-15T12:05:12;6.50;;;5.13;;
3991;SDS011;2010;48.194;16.394;2023-01-15T12:07:52;7.23;;;5.20;;
3991;SDS011;2010;48.194;16.394;2023-01-15T12:10:23;6.83;;;4.90;;
3991;SDS011;2010;48.194;16.394;2023-01-15T12:13:23;8.20;;;4.93;;
3991;SDS011;2010;48.194;16.394;2023-01-15T12:16:01;7.00;;;4.60;;
3991;SDS011;2010;48.194;16.394;2023-01-15T12:21:29;8.70;;;4.97;;
3991;SDS011;2010;48.194;16.394;2023-01-15T12:25:00;5.90;;;5.10;;
3991;SDS011;2010;48.194;16.394;2023-01-15T12:28:05;8.00;;;6.77;;
3991;SDS011;2010;48.194;16.394;2023-01-15T12:30:41;7.63;;;6.13;;
3991;SDS011;2010;48.194;16.394;2023-01-15T12:33:24;6.43;;;5.20;;
3991;SDS011;2010;48.194;16.394;2023-01-15T12:36:07;6.93;;;5.63;;
3991;SDS011;2010;48.194;16.394;2023-01-15T12:38:47;8.90;;;6.43;;
3991;SDS011;2010;48.194;16.394;2023-01-15T12:41:26;7.80;;;6.23;;
3991;SDS011;2010;48.194;16.394;2023-01-15T12:44:24;10.00;;;5.53;;
3991;SDS011;2010;48.194;16.394;2023-01-15T12:47:17;7.50;;;5.90;;
3991;SDS011;2010;48.194;16.394;2023-01-15T12:49:52;5.87;;;5.27;;
3991;SDS011;2010;48.194;16.394;2023-01-15T12:52:26;6.47;;;5.23;;
3991;SDS011;2010;48.194;16.394;2023-01-15T12:55:00;7.33;;;5.60;;
3991;SDS011;2010;48.194;16.394;2023-01-15T12:57:37;8.23;;;5.60;;
3991;SDS011;2010;48.194;16.394;2023-01-15T13:00:11;6.83;;;5.77;;
3991;SDS011;2010;48.194;16.394;2023-01-15T13:02:51;6.60;;;5.97;;
3991;SDS011;2010;48.194;16.394;2023-01-15T13:05:40;6.50;;;5.40;;
3991;SDS011;2010;48.194;16.394;2023-01-15T13:08:20;6.83;;;5.60;;
3991;SDS011;2010;48.194;16.394;2023-01-15T13:10:54;8.63;;;5.57;;
3991;SDS011;2010;48.194;16.394;2023-01-15T13:13:37;6.20;;;5.60;;
3991;SDS011;2010;48.194;16.394;2023-01-15T13:16:11;8.70;;;5.37;;
3991;SDS011;2010;48.194;16.394;2023-01-15T13:18:54;9.07;;;6.10;;
3991;SDS011;2010;48.194;16.394;2023-01-15T13:21:34;6.40;;;5.70;;
3991;SDS011;2010;48.194;16.394;2023-01-15T13:24:14;8.50;;;6.47;;
3991;SDS011;2010;48.194;16.394;2023-01-15T13:27:04;7.37;;;5.60;;
3991;SDS011;2010;48.194;16.394;2023-01-15T13:30:03;6.13;;;5.53;;
3991;SDS011;2010;48.194;16.394;2023-01-15T13:32:48;8.70;;;6.10;;
3991;SDS011;2010;48.194;16.394;2023-01-15T13:35:25;7.50;;;6.73;;
3991;SDS011;2010;48.194;16.394;2023-01-15T13:37:57;9.57;;;6.80;;
3991;SDS011;2010;48.194;16.394;2023-01-15T13:40:32;8.67;;;5.97;;
3991;SDS011;2010;48.194;16.394;2023-01-15T13:43:03;14.50;;;6.17;;
3991;SDS011;2010;48.194;16.394;2023-01-15T13:45:49;10.40;;;6.17;;
3991;SDS011;2010;48.194;16.394;2023-01-15T13:48:21;7.50;;;5.80;;
3991;SDS011;2010;48.194;16.394;2023-01-15T13:51:01;10.70;;;6.73;;
3991;SDS011;2010;48.194;16.394;2023-01-15T13:53:32;8.20;;;5.90;;
3991;SDS011;2010;48.194;16.394;2023-01-15T13:56:05;8.87;;;6.13;;
3991;SDS011;2010;48.194;16.394;2023-01-15T13:58:37;8.67;;;6.20;;
3991;SDS011;2010;48.194;16.394;2023-01-15T14:01:23;8.90;;;6.10;;
3991;SDS011;2010;48.194;16.394;2023-01-15T14:03:54;6.60;;;5.90;;
3991;SDS011;2010;48.194;16.394;2023-01-15T14:06:40;7.63;;;5.67;;
3991;SDS011;2010;48.194;16.394;2023-01-15T14:09:25;7.37;;;6.17;;
3991;SDS011;2010;48.194;16.394;2023-01-15T14:12:11;11.53;;;6.70;;
3991;SDS011;2010;48.194;16.394;2023-01-15T14:18:11;13.97;;;6.27;;
3991;SDS011;2010;48.194;16.394;2023-01-15T14:23:58;9.33;;;6.50;;
3991;SDS011;2010;48.194;16.394;2023-01-15T14:26:39;7.23;;;6.37;;
3991;SDS011;2010;48.194;16.394;2023-01-15T14:32:22;9.10;;;7.20;;
3991;SDS011;2010;48.194;16.394;2023-01-15T14:35:10;7.80;;;6.97;;
3991;SDS011;2010;48.194;16.394;2023-01-15T14:37:45;12.60;;;8.10;;
3991;SDS011;2010;48.194;16.394;2023-01-15T14:40:25;12.10;;;8.40;;
3991;SDS011;2010;48.194;16.394;2023-01-15T14:42:59;9.47;;;7.30;;
3991;SDS011;2010;48.194;16.394;2023-01-15T14:45:39;11.93;;;7.47;;
3991;SDS011;2010;48.194;16.394;2023-01-15T14:48:15;8.80;;;7.10;;
3991;SDS011;2010;48.194;16.394;2023-01-15T14:50:51;11.53;;;6.73;;
3991;SDS011;2010;48.194;16.394;2023-01-15T14:53:24;9.10;;;7.40;;
3991;SDS011;2010;48.194;16.394;2023-01-15T14:56:03;8.23;;;6.93;;
3991;SDS011;2010;48.194;16.394;2023-01-15T14:58:43;8.30;;;6.80;;
3991;SDS011;2010;48.194;16.394;2023-01-15T15:01:31;8.10;;;7.00;;
3991;SDS011;2010;48.194;16.394;2023-01-15T15:04:24;8.83;;;7.03;;
3991;SDS011;2010;48.194;16.394;2023-01-15T15:07:11;10.37;;;7.40;;
3991;SDS011;2010;48.194;16.394;2023-01-15T15:09:44;9.40;;;7.40;;
3991;SDS011;2010;48.194;16.394;2023-01-15T15:12:24;9.60;;;7.37;;
3991;SDS011;2010;48.194;16.394;2023-01-15T15:15:11;8.43;;;6.03;;
3991;SDS011;2010;48.194;16.394;2023-01-15T15:17:52;9.77;;;6.70;;
3991;SDS011;2010;48.194;16.394;2023-01-15T15:20:37;8.97;;;6.40;;
3991;SDS011;2010;48.194;16.394;2023-01-15T15:23:36;7.40;;;5.83;;
3991;SDS011;2010;48.194;16.394;2023-01-15T15:26:18;7.30;;;6.60;;
3991;SDS011;2010;48.194;16.394;2023-01-15T15:28:55;7.40;;;6.63;;
3991;SDS011;2010;48.194;16.394;2023-01-15T15:31:30;13.97;;;9.73;;
3991;SDS011;2010;48.194;16.394;2023-01-15T15:34:05;13.10;;;8.63;;
3991;SDS011;2010;48.194;16.394;2023-01-15T15:36:48;14.23;;;8.40;;
3991;SDS011;2010;48.194;16.394;2023-01-15T15:39:19;10.67;;;8.27;;
3991;SDS011;2010;48.194;16.394;2023-01-15T15:41:59;9.67;;;7.17;;
3991;SDS011;2010;48.194;16.394;2023-01-15T15:44:49;8.30;;;7.10;;
3991;SDS011;2010;48.194;16.394;2023-01-15T15:47:39;7.03;;;6.33;;
3991;SDS011;2010;48.194;16.394;2023-01-15T15:50:31;9.27;;;6.20;;
3991;SDS011;2010;48.194;16.394;2023-01-15T15:53:05;7.80;;;6.83;;
3991;SDS011;2010;48.194;16.394;2023-01-15T15:55:51;8.13;;;6.40;;
3991;SDS011;2010;48.194;16.394;2023-01-15T15:58:28;9.43;;;6.73;;
3991;SDS011;2010;48.194;16.394;2023-01-15T16:01:09;9.43;;;6.67;;
3991;SDS011;2010;48.194;16.394;2023-01-15T16:03:53;8.17;;;7.00;;
3991;SDS011;2010;48.194;16.394;2023-01-15T16:06:52;8.60;;;6.80;;
3991;SDS011;2010;48.194;16.394;2023-01-15T16:09:22;8.73;;;6.30;;
3991;SDS011;2010;48.194;16.394;2023-01-15T16:11:57;10.77;;;8.27;;
3991;SDS011;2010;48.194;16.394;2023-01-15T16:14:37;12.37;;;9.23;;
3991;SDS011;2010;48.194;16.394;2023-01-15T16:17:09;8.10;;;6.87;;
3991;SDS011;2010;48.194;16.394;2023-01-15T16:19:48;13.50;;;8.57;;
3991;SDS011;2010;48.194;16.394;2023-01-15T16:22:19;7.00;;;6.30;;
3991;SDS011;2010;48.194;16.394;2023-01-15T16:24:59;7.70;;;6.30;;